sim
Sign-in with your pilot id or email,
or register
Callsign
Passwort

Schedule Details

Flight Number: DLH2000
Departure: Munich Airport (EDDM) at 18:00
Arrival: Dusseldorf International Airport (EDDL) at 19:10
Route: Lufthansa Passenger Schedule. Enter filed route here before submitting Pirep.

Weather Information
Getting current METAR information for EDDM 240820Z 23008KT 180V260 CAVOK 17/14 Q1010 NOSIG
Getting current METAR information for EDDL 240820Z 21014KT 9999 FEW020 15/10 Q1005 NOSIG

Schedule Frequency

Route Map